sensor_id;sensor_type;location;lat;lon;timestamp;temperature;humidity
4934;DHT22;2482;49.154;8.254;2022-10-16T00:01:36;16.30;99.90
4934;DHT22;2482;49.154;8.254;2022-10-16T00:04:04;16.20;99.90
4934;DHT22;2482;49.154;8.254;2022-10-16T00:06:31;16.20;99.90
4934;DHT22;2482;49.154;8.254;2022-10-16T00:08:58;16.20;99.90
4934;DHT22;2482;49.154;8.254;2022-10-16T00:11:31;16.10;99.90
4934;DHT22;2482;49.154;8.254;2022-10-16T00:14:08;16.20;99.90
4934;DHT22;2482;49.154;8.254;2022-10-16T00:16:38;16.20;99.90
4934;DHT22;2482;49.154;8.254;2022-10-16T00:19:05;16.30;99.90
4934;DHT22;2482;49.154;8.254;2022-10-16T00:21:33;16.30;99.90
4934;DHT22;2482;49.154;8.254;2022-10-16T00:24:06;16.30;99.90
4934;DHT22;2482;49.154;8.254;2022-10-16T00:26:38;16.20;99.90
4934;DHT22;2482;49.154;8.254;2022-10-16T00:29:07;16.30;99.90
4934;DHT22;2482;49.154;8.254;2022-10-16T00:31:35;16.20;99.90
4934;DHT22;2482;49.154;8.254;2022-10-16T00:34:02;16.20;99.90
4934;DHT22;2482;49.154;8.254;2022-10-16T00:36:29;16.20;99.90
4934;DHT22;2482;49.154;8.254;2022-10-16T00:38:57;16.20;99.90
4934;DHT22;2482;49.154;8.254;2022-10-16T00:41:31;16.20;99.90
4934;DHT22;2482;49.154;8.254;2022-10-16T00:44:00;16.30;99.90
4934;DHT22;2482;49.154;8.254;2022-10-16T00:46:41;16.10;99.90
4934;DHT22;2482;49.154;8.254;2022-10-16T00:49:15;16.10;99.90
4934;DHT22;2482;49.154;8.254;2022-10-16T00:51:49;16.10;99.90
4934;DHT22;2482;49.154;8.254;2022-10-16T00:54:26;16.10;99.90
4934;DHT22;2482;49.154;8.254;2022-10-16T00:56:59;16.10;99.90
4934;DHT22;2482;49.154;8.254;2022-10-16T00:59:32;16.30;99.90
4934;DHT22;2482;49.154;8.254;2022-10-16T01:02:01;16.40;99.90
4934;DHT22;2482;49.154;8.254;2022-10-16T01:04:34;16.40;99.90
4934;DHT22;2482;49.154;8.254;2022-10-16T01:12:23;16.30;99.90
4934;DHT22;2482;49.154;8.254;2022-10-16T01:15:02;16.20;99.90
4934;DHT22;2482;49.154;8.254;2022-10-16T01:17:45;16.10;99.90
4934;DHT22;2482;49.154;8.254;2022-10-16T01:20:31;16.10;99.90
4934;DHT22;2482;49.154;8.254;2022-10-16T01:26:03;16.00;99.90
4934;DHT22;2482;49.154;8.254;2022-10-16T01:28:56;16.00;99.90
4934;DHT22;2482;49.154;8.254;2022-10-16T01:31:30;16.00;99.90
4934;DHT22;2482;49.154;8.254;2022-10-16T01:34:05;16.00;99.90
4934;DHT22;2482;49.154;8.254;2022-10-16T01:36:53;16.20;99.90
4934;DHT22;2482;49.154;8.254;2022-10-16T01:39:26;16.10;99.90
4934;DHT22;2482;49.154;8.254;2022-10-16T01:42:03;16.10;99.90
4934;DHT22;2482;49.154;8.254;2022-10-16T01:44:35;16.10;99.90
4934;DHT22;2482;49.154;8.254;2022-10-16T01:47:04;16.00;99.90
4934;DHT22;2482;49.154;8.254;2022-10-16T01:49:35;16.00;99.90
4934;DHT22;2482;49.154;8.254;2022-10-16T01:52:06;16.10;99.90
4934;DHT22;2482;49.154;8.254;2022-10-16T01:54:39;16.10;99.90
4934;DHT22;2482;49.154;8.254;2022-10-16T01:57:08;16.00;99.90
4934;DHT22;2482;49.154;8.254;2022-10-16T01:59:40;16.20;99.90
4934;DHT22;2482;49.154;8.254;2022-10-16T02:02:11;16.10;99.90
4934;DHT22;2482;49.154;8.254;2022-10-16T02:04:44;16.00;99.90
4934;DHT22;2482;49.154;8.254;2022-10-16T02:07:13;16.00;99.90
4934;DHT22;2482;49.154;8.254;2022-10-16T02:09:41;16.10;99.90
4934;DHT22;2482;49.154;8.254;2022-10-16T02:14:54;16.00;99.90
4934;DHT22;2482;49.154;8.254;2022-10-16T02:17:22;15.90;99.90
4934;DHT22;2482;49.154;8.254;2022-10-16T02:19:52;15.90;99.90
4934;DHT22;2482;49.154;8.254;2022-10-16T02:22:35;15.90;99.90
4934;DHT22;2482;49.154;8.254;2022-10-16T02:25:13;15.90;99.90
4934;DHT22;2482;49.154;8.254;2022-10-16T02:31:01;15.80;99.90
4934;DHT22;2482;49.154;8.254;2022-10-16T02:33:31;15.80;99.90
4934;DHT22;2482;49.154;8.254;2022-10-16T02:36:00;15.70;99.90
4934;DHT22;2482;49.154;8.254;2022-10-16T02:38:27;15.70;99.90
4934;DHT22;2482;49.154;8.254;2022-10-16T02:40:56;15.70;99.90
4934;DHT22;2482;49.154;8.254;2022-10-16T02:43:25;15.60;99.90
4934;DHT22;2482;49.154;8.254;2022-10-16T02:45:53;15.70;99.90
4934;DHT22;2482;49.154;8.254;2022-10-16T02:48:20;15.70;99.90
4934;DHT22;2482;49.154;8.254;2022-10-16T02:50:47;15.80;99.90
4934;DHT22;2482;49.154;8.254;2022-10-16T02:53:13;15.80;99.90
4934;DHT22;2482;49.154;8.254;2022-10-16T02:55:40;15.90;99.90
4934;DHT22;2482;49.154;8.254;2022-10-16T02:58:09;15.80;99.90
4934;DHT22;2482;49.154;8.254;2022-10-16T03:00:36;15.90;99.90
4934;DHT22;2482;49.154;8.254;2022-10-16T03:03:03;15.90;99.90
4934;DHT22;2482;49.154;8.254;2022-10-16T03:05:30;15.90;99.90
4934;DHT22;2482;49.154;8.254;2022-10-16T03:07:57;15.90;99.90
4934;DHT22;2482;49.154;8.254;2022-10-16T03:10:26;15.80;99.90
4934;DHT22;2482;49.154;8.254;2022-10-16T03:12:53;15.90;99.90
4934;DHT22;2482;49.154;8.254;2022-10-16T03:15:20;15.90;99.90
4934;DHT22;2482;49.154;8.254;2022-10-16T03:17:47;15.90;99.90
4934;DHT22;2482;49.154;8.254;2022-10-16T03:20:14;16.00;99.90
4934;DHT22;2482;49.154;8.254;2022-10-16T03:22:41;16.00;99.90
4934;DHT22;2482;49.154;8.254;2022-10-16T03:25:08;16.00;99.90
4934;DHT22;2482;49.154;8.254;2022-10-16T03:27:36;15.90;99.90
4934;DHT22;2482;49.154;8.254;2022-10-16T03:30:04;16.00;99.90
4934;DHT22;2482;49.154;8.254;2022-10-16T03:32:31;15.90;99.90
4934;DHT22;2482;49.154;8.254;2022-10-16T03:34:58;15.90;99.90
4934;DHT22;2482;49.154;8.254;2022-10-16T03:37:25;15.90;99.90
4934;DHT22;2482;49.154;8.254;2022-10-16T03:39:53;15.90;99.90
4934;DHT22;2482;49.154;8.254;2022-10-16T03:42:20;16.00;99.90
4934;DHT22;2482;49.154;8.254;2022-10-16T03:44:47;16.20;99.90
4934;DHT22;2482;49.154;8.254;2022-10-16T03:47:14;16.20;99.90
4934;DHT22;2482;49.154;8.254;2022-10-16T03:49:41;16.20;99.90
4934;DHT22;2482;49.154;8.254;2022-10-16T03:52:08;16.20;99.90
4934;DHT22;2482;49.154;8.254;2022-10-16T03:54:35;16.10;99.90
4934;DHT22;2482;49.154;8.254;2022-10-16T03:57:03;16.10;99.90
4934;DHT22;2482;49.154;8.254;2022-10-16T03:59:30;16.00;99.90
4934;DHT22;2482;49.154;8.254;2022-10-16T04:01:57;16.10;99.90
4934;DHT22;2482;49.154;8.254;2022-10-16T04:04:24;16.10;99.90
4934;DHT22;2482;49.154;8.254;2022-10-16T04:06:51;16.10;99.90
4934;DHT22;2482;49.154;8.254;2022-10-16T04:09:19;16.20;99.90
4934;DHT22;2482;49.154;8.254;2022-10-16T04:11:46;16.30;99.90
4934;DHT22;2482;49.154;8.254;2022-10-16T04:14:13;16.20;99.90
4934;DHT22;2482;49.154;8.254;2022-10-16T04:16:40;16.20;99.90
4934;DHT22;2482;49.154;8.254;2022-10-16T04:19:07;16.20;99.90
4934;DHT22;2482;49.154;8.254;2022-10-16T04:21:34;16.20;99.90
4934;DHT22;2482;49.154;8.254;2022-10-16T04:24:02;16.20;99.90
4934;DHT22;2482;49.154;8.254;2022-10-16T04:26:30;16.30;99.90
4934;DHT22;2482;49.154;8.254;2022-10-16T04:28:57;16.20;99.90
4934;DHT22;2482;49.154;8.254;2022-10-16T04:31:24;16.10;99.90
4934;DHT22;2482;49.154;8.254;2022-10-16T04:33:51;16.00;99.90
4934;DHT22;2482;49.154;8.254;2022-10-16T04:36:18;15.90;99.90
4934;DHT22;2482;49.154;8.254;2022-10-16T04:38:44;15.90;99.90
4934;DHT22;2482;49.154;8.254;2022-10-16T04:41:11;16.00;99.90
4934;DHT22;2482;49.154;8.254;2022-10-16T04:43:38;16.00;99.90
4934;DHT22;2482;49.154;8.254;2022-10-16T04:46:05;16.00;99.90
4934;DHT22;2482;49.154;8.254;2022-10-16T04:48:33;16.00;99.90
4934;DHT22;2482;49.154;8.254;2022-10-16T04:51:00;16.00;99.90
4934;DHT22;2482;49.154;8.254;2022-10-16T04:53:27;15.90;99.90
4934;DHT22;2482;49.154;8.254;2022-10-16T04:55:54;15.90;99.90
4934;DHT22;2482;49.154;8.254;2022-10-16T04:58:22;15.90;99.90
4934;DHT22;2482;49.154;8.254;2022-10-16T05:00:49;16.00;99.90
4934;DHT22;2482;49.154;8.254;2022-10-16T05:03:16;16.00;99.90
4934;DHT22;2482;49.154;8.254;2022-10-16T05:05:44;16.10;99.90
4934;DHT22;2482;49.154;8.254;2022-10-16T05:08:13;16.10;99.90
4934;DHT22;2482;49.154;8.254;2022-10-16T05:10:42;16.10;99.90
4934;DHT22;2482;49.154;8.254;2022-10-16T05:13:09;16.00;99.90
4934;DHT22;2482;49.154;8.254;2022-10-16T05:15:37;16.00;99.90
4934;DHT22;2482;49.154;8.254;2022-10-16T05:18:04;16.20;99.90
4934;DHT22;2482;49.154;8.254;2022-10-16T05:20:31;16.20;99.90
4934;DHT22;2482;49.154;8.254;2022-10-16T05:22:58;16.20;99.90
4934;DHT22;2482;49.154;8.254;2022-10-16T05:25:25;16.20;99.90
4934;DHT22;2482;49.154;8.254;2022-10-16T05:27:52;16.10;99.90
4934;DHT22;2482;49.154;8.254;2022-10-16T05:30:20;16.00;99.90
4934;DHT22;2482;49.154;8.254;2022-10-16T05:32:48;16.10;99.90
4934;DHT22;2482;49.154;8.254;2022-10-16T05:35:17;15.90;99.90
4934;DHT22;2482;49.154;8.254;2022-10-16T05:37:46;16.00;99.90
4934;DHT22;2482;49.154;8.254;2022-10-16T05:40:14;16.10;99.90
4934;DHT22;2482;49.154;8.254;2022-10-16T05:42:41;16.10;99.90
4934;DHT22;2482;49.154;8.254;2022-10-16T05:45:10;16.10;99.90
4934;DHT22;2482;49.154;8.254;2022-10-16T05:47:38;16.10;99.90
4934;DHT22;2482;49.154;8.254;2022-10-16T05:50:08;16.10;99.90
4934;DHT22;2482;49.154;8.254;2022-10-16T05:52:36;16.00;99.90
4934;DHT22;2482;49.154;8.254;2022-10-16T05:55:04;16.20;99.90
4934;DHT22;2482;49.154;8.254;2022-10-16T05:57:31;16.20;99.90
4934;DHT22;2482;49.154;8.254;2022-10-16T05:59:58;16.10;99.90
4934;DHT22;2482;49.154;8.254;2022-10-16T06:02:25;16.00;99.90
4934;DHT22;2482;49.154;8.254;2022-10-16T06:04:52;16.10;99.90
4934;DHT22;2482;49.154;8.254;2022-10-16T06:07:22;16.10;99.90
4934;DHT22;2482;49.154;8.254;2022-10-16T06:09:52;16.10;99.90
4934;DHT22;2482;49.154;8.254;2022-10-16T06:12:23;16.20;99.90
4934;DHT22;2482;49.154;8.254;2022-10-16T06:14:56;16.10;99.90
4934;DHT22;2482;49.154;8.254;2022-10-16T06:17:23;16.20;99.90
4934;DHT22;2482;49.154;8.254;2022-10-16T06:19:54;16.40;99.90
4934;DHT22;2482;49.154;8.254;2022-10-16T06:22:21;16.20;99.90
4934;DHT22;2482;49.154;8.254;2022-10-16T06:24:48;16.10;99.90
4934;DHT22;2482;49.154;8.254;2022-10-16T06:27:20;16.10;99.90
4934;DHT22;2482;49.154;8.254;2022-10-16T06:29:59;16.00;99.90
4934;DHT22;2482;49.154;8.254;2022-10-16T06:32:27;16.20;99.90
4934;DHT22;2482;49.154;8.254;2022-10-16T06:34:54;16.10;99.90
4934;DHT22;2482;49.154;8.254;2022-10-16T06:37:21;16.10;99.90
4934;DHT22;2482;49.154;8.254;2022-10-16T06:39:49;15.90;99.90
4934;DHT22;2482;49.154;8.254;2022-10-16T06:42:16;15.80;99.90
4934;DHT22;2482;49.154;8.254;2022-10-16T06:44:42;15.90;99.90
4934;DHT22;2482;49.154;8.254;2022-10-16T06:47:11;16.00;99.90
4934;DHT22;2482;49.154;8.254;2022-10-16T06:49:38;16.00;99.90
4934;DHT22;2482;49.154;8.254;2022-10-16T06:52:05;16.10;99.90
4934;DHT22;2482;49.154;8.254;2022-10-16T06:54:32;16.20;99.90
4934;DHT22;2482;49.154;8.254;2022-10-16T06:57:12;16.30;99.90
4934;DHT22;2482;49.154;8.254;2022-10-16T06:59:39;16.20;99.90
4934;DHT22;2482;49.154;8.254;2022-10-16T07:02:08;16.20;99.90
4934;DHT22;2482;49.154;8.254;2022-10-16T07:04:48;16.10;99.90
4934;DHT22;2482;49.154;8.254;2022-10-16T07:07:17;16.00;99.90
4934;DHT22;2482;49.154;8.254;2022-10-16T07:09:46;16.10;99.90
4934;DHT22;2482;49.154;8.254;2022-10-16T07:12:23;16.00;99.90
4934;DHT22;2482;49.154;8.254;2022-10-16T07:14:53;16.10;99.90
4934;DHT22;2482;49.154;8.254;2022-10-16T07:17:25;16.10;99.90
4934;DHT22;2482;49.154;8.254;2022-10-16T07:19:52;16.20;99.90
4934;DHT22;2482;49.154;8.254;2022-10-16T07:22:28;16.20;99.90
4934;DHT22;2482;49.154;8.254;2022-10-16T07:24:56;16.20;99.90
4934;DHT22;2482;49.154;8.254;2022-10-16T07:27:23;16.20;99.90
4934;DHT22;2482;49.154;8.254;2022-10-16T07:29:52;16.20;99.90
4934;DHT22;2482;49.154;8.254;2022-10-16T07:32:19;16.20;99.90
4934;DHT22;2482;49.154;8.254;2022-10-16T07:34:48;16.20;99.90
4934;DHT22;2482;49.154;8.254;2022-10-16T07:37:18;16.40;99.90
4934;DHT22;2482;49.154;8.254;2022-10-16T07:39:45;16.50;99.90
4934;DHT22;2482;49.154;8.254;2022-10-16T07:42:14;16.60;99.90
4934;DHT22;2482;49.154;8.254;2022-10-16T07:44:41;16.50;99.90
4934;DHT22;2482;49.154;8.254;2022-10-16T07:47:09;16.50;99.90
4934;DHT22;2482;49.154;8.254;2022-10-16T07:49:39;16.50;99.90
4934;DHT22;2482;49.154;8.254;2022-10-16T07:52:11;16.50;99.90
4934;DHT22;2482;49.154;8.254;2022-10-16T07:54:41;16.60;99.90
4934;DHT22;2482;49.154;8.254;2022-10-16T07:57:08;16.60;99.90
4934;DHT22;2482;49.154;8.254;2022-10-16T07:59:35;16.60;99.90
4934;DHT22;2482;49.154;8.254;2022-10-16T08:02:01;16.80;99.90
4934;DHT22;2482;49.154;8.254;2022-10-16T08:04:32;16.80;99.90
4934;DHT22;2482;49.154;8.254;2022-10-16T08:06:59;16.90;99.90
4934;DHT22;2482;49.154;8.254;2022-10-16T08:09:26;16.90;99.90
4934;DHT22;2482;49.154;8.254;2022-10-16T08:11:54;16.90;99.90
4934;DHT22;2482;49.154;8.254;2022-10-16T08:14:28;16.90;99.90
4934;DHT22;2482;49.154;8.254;2022-10-16T08:16:57;17.10;99.90
4934;DHT22;2482;49.154;8.254;2022-10-16T08:19:25;17.10;99.90
4934;DHT22;2482;49.154;8.254;2022-10-16T08:21:52;17.10;99.90
4934;DHT22;2482;49.154;8.254;2022-10-16T08:24:19;17.20;99.90
4934;DHT22;2482;49.154;8.254;2022-10-16T08:26:46;17.20;99.90
4934;DHT22;2482;49.154;8.254;2022-10-16T08:29:14;17.10;99.90
4934;DHT22;2482;49.154;8.254;2022-10-16T08:31:41;17.10;99.90
4934;DHT22;2482;49.154;8.254;2022-10-16T08:34:08;17.10;99.90
4934;DHT22;2482;49.154;8.254;2022-10-16T08:36:36;17.30;99.90
4934;DHT22;2482;49.154;8.254;2022-10-16T08:39:03;17.40;99.90
4934;DHT22;2482;49.154;8.254;2022-10-16T08:41:54;17.40;99.90
4934;DHT22;2482;49.154;8.254;2022-10-16T08:51:12;17.40;99.90
4934;DHT22;2482;49.154;8.254;2022-10-16T08:53:54;17.50;99.90
4934;DHT22;2482;49.154;8.254;2022-10-16T08:56:24;17.60;99.90
4934;DHT22;2482;49.154;8.254;2022-10-16T08:58:52;17.60;99.90
4934;DHT22;2482;49.154;8.254;2022-10-16T09:01:38;17.50;99.90
4934;DHT22;2482;49.154;8.254;2022-10-16T09:21:14;18.00;99.90
4934;DHT22;2482;49.154;8.254;2022-10-16T09:23:45;18.30;99.90
4934;DHT22;2482;49.154;8.254;2022-10-16T09:26:15;18.50;99.90
4934;DHT22;2482;49.154;8.254;2022-10-16T09:28:44;18.90;99.90
4934;DHT22;2482;49.154;8.254;2022-10-16T09:31:21;19.10;99.90
4934;DHT22;2482;49.154;8.254;2022-10-16T09:33:54;19.00;99.90
4934;DHT22;2482;49.154;8.254;2022-10-16T09:36:27;19.10;99.90
4934;DHT22;2482;49.154;8.254;2022-10-16T09:39:06;19.00;99.90
4934;DHT22;2482;49.154;8.254;2022-10-16T09:41:37;18.90;99.90
4934;DHT22;2482;49.154;8.254;2022-10-16T09:44:23;18.90;99.90
4934;DHT22;2482;49.154;8.254;2022-10-16T09:47:13;19.00;99.90
4934;DHT22;2482;49.154;8.254;2022-10-16T09:49:56;19.20;99.90
4934;DHT22;2482;49.154;8.254;2022-10-16T09:52:25;19.30;99.90
4934;DHT22;2482;49.154;8.254;2022-10-16T09:54:57;19.40;99.90
4934;DHT22;2482;49.154;8.254;2022-10-16T09:57:26;19.50;99.90
4934;DHT22;2482;49.154;8.254;2022-10-16T09:59:56;19.50;99.90
4934;DHT22;2482;49.154;8.254;2022-10-16T10:02:34;19.50;99.90
4934;DHT22;2482;49.154;8.254;2022-10-16T10:05:05;19.60;99.90
4934;DHT22;2482;49.154;8.254;2022-10-16T10:07:58;19.90;99.90
4934;DHT22;2482;49.154;8.254;2022-10-16T10:10:28;20.60;99.90
4934;DHT22;2482;49.154;8.254;2022-10-16T10:12:57;21.00;99.90
4934;DHT22;2482;49.154;8.254;2022-10-16T10:15:29;21.00;99.90
4934;DHT22;2482;49.154;8.254;2022-10-16T10:18:00;21.20;99.90
4934;DHT22;2482;49.154;8.254;2022-10-16T10:20:31;21.00;99.90
4934;DHT22;2482;49.154;8.254;2022-10-16T10:23:13;20.60;99.90
4934;DHT22;2482;49.154;8.254;2022-10-16T10:29:12;21.00;99.90
4934;DHT22;2482;49.154;8.254;2022-10-16T10:46:02;21.90;99.90
4934;DHT22;2482;49.154;8.254;2022-10-16T10:56:58;22.00;99.90
4934;DHT22;2482;49.154;8.254;2022-10-16T10:59:37;21.80;99.90
4934;DHT22;2482;49.154;8.254;2022-10-16T11:02:32;22.10;99.90
4934;DHT22;2482;49.154;8.254;2022-10-16T11:08:17;21.80;99.90
4934;DHT22;2482;49.154;8.254;2022-10-16T11:16:56;21.30;99.90
4934;DHT22;2482;49.154;8.254;2022-10-16T11:19:39;21.30;99.90
4934;DHT22;2482;49.154;8.254;2022-10-16T11:25:11;21.20;99.90
4934;DHT22;2482;49.154;8.254;2022-10-16T11:31:28;21.30;99.90
4934;DHT22;2482;49.154;8.254;2022-10-16T11:34:15;21.40;99.90
4934;DHT22;2482;49.154;8.254;2022-10-16T11:36:50;21.60;99.90
4934;DHT22;2482;49.154;8.254;2022-10-16T11:39:30;21.80;99.90
4934;DHT22;2482;49.154;8.254;2022-10-16T11:42:14;21.80;99.90
4934;DHT22;2482;49.154;8.254;2022-10-16T11:47:54;22.00;99.90
4934;DHT22;2482;49.154;8.254;2022-10-16T11:55:48;22.10;99.90
4934;DHT22;2482;49.154;8.254;2022-10-16T11:58:37;22.00;99.90
4934;DHT22;2482;49.154;8.254;2022-10-16T12:01:48;22.20;99.90
4934;DHT22;2482;49.154;8.254;2022-10-16T12:04:31;22.10;99.90
4934;DHT22;2482;49.154;8.254;2022-10-16T12:07:39;22.10;99.90
4934;DHT22;2482;49.154;8.254;2022-10-16T12:10:26;22.10;99.90
4934;DHT22;2482;49.154;8.254;2022-10-16T12:12:55;22.10;99.90
4934;DHT22;2482;49.154;8.254;2022-10-16T12:15:28;22.10;99.90
4934;DHT22;2482;49.154;8.254;2022-10-16T12:18:25;22.00;99.90
4934;DHT22;2482;49.154;8.254;2022-10-16T12:20:56;22.10;99.90
4934;DHT22;2482;49.154;8.254;2022-10-16T12:23:53;22.20;99.90
4934;DHT22;2482;49.154;8.254;2022-10-16T12:26:32;22.40;99.90
4934;DHT22;2482;49.154;8.254;2022-10-16T12:29:28;22.40;99.90
4934;DHT22;2482;49.154;8.254;2022-10-16T12:32:04;22.60;99.90
4934;DHT22;2482;49.154;8.254;2022-10-16T12:34:39;22.70;99.90
4934;DHT22;2482;49.154;8.254;2022-10-16T12:39:50;22.20;99.90
4934;DHT22;2482;49.154;8.254;2022-10-16T12:45:21;22.20;99.90
4934;DHT22;2482;49.154;8.254;2022-10-16T12:47:52;22.30;99.90
4934;DHT22;2482;49.154;8.254;2022-10-16T12:50:28;22.20;99.90
4934;DHT22;2482;49.154;8.254;2022-10-16T12:52:59;22.20;99.90
4934;DHT22;2482;49.154;8.254;2022-10-16T12:55:33;22.00;99.90
4934;DHT22;2482;49.154;8.254;2022-10-16T12:58:59;21.90;99.90
4934;DHT22;2482;49.154;8.254;2022-10-16T13:04:39;21.90;99.90
4934;DHT22;2482;49.154;8.254;2022-10-16T13:28:01;20.90;99.90
4934;DHT22;2482;49.154;8.254;2022-10-16T13:30:54;20.90;99.90
4934;DHT22;2482;49.154;8.254;2022-10-16T13:33:42;21.00;99.90
4934;DHT22;2482;49.154;8.254;2022-10-16T13:36:27;20.90;99.90
4934;DHT22;2482;49.154;8.254;2022-10-16T13:39:14;20.90;99.90
4934;DHT22;2482;49.154;8.254;2022-10-16T13:42:09;20.80;99.90
4934;DHT22;2482;49.154;8.254;2022-10-16T13:44:50;20.80;99.90
4934;DHT22;2482;49.154;8.254;2022-10-16T13:47:24;20.70;99.90
4934;DHT22;2482;49.154;8.254;2022-10-16T13:50:04;20.60;99.90
4934;DHT22;2482;49.154;8.254;2022-10-16T13:52:32;20.70;99.90
4934;DHT22;2482;49.154;8.254;2022-10-16T13:54:59;20.50;99.90
4934;DHT22;2482;49.154;8.254;2022-10-16T13:57:28;20.90;99.90
4934;DHT22;2482;49.154;8.254;2022-10-16T13:59:55;20.80;99.90
4934;DHT22;2482;49.154;8.254;2022-10-16T14:02:34;20.70;99.90
4934;DHT22;2482;49.154;8.254;2022-10-16T14:05:04;20.80;99.90
4934;DHT22;2482;49.154;8.254;2022-10-16T14:07:36;20.60;99.90
4934;DHT22;2482;49.154;8.254;2022-10-16T14:10:18;20.60;99.90
4934;DHT22;2482;49.154;8.254;2022-10-16T14:13:03;20.50;99.90
4934;DHT22;2482;49.154;8.254;2022-10-16T14:15:33;20.50;99.90
4934;DHT22;2482;49.154;8.254;2022-10-16T14:18:07;20.50;99.90
4934;DHT22;2482;49.154;8.254;2022-10-16T14:20:52;20.40;99.90
4934;DHT22;2482;49.154;8.254;2022-10-16T14:23:29;20.40;99.90
4934;DHT22;2482;49.154;8.254;2022-10-16T14:28:37;20.60;99.90
4934;DHT22;2482;49.154;8.254;2022-10-16T14:31:29;20.90;99.90
4934;DHT22;2482;49.154;8.254;2022-10-16T14:34:01;21.40;99.90
4934;DHT22;2482;49.154;8.254;2022-10-16T14:36:34;21.60;99.90
4934;DHT22;2482;49.154;8.254;2022-10-16T14:39:19;21.80;99.90
4934;DHT22;2482;49.154;8.254;2022-10-16T14:41:56;21.90;99.90
4934;DHT22;2482;49.154;8.254;2022-10-16T14:44:40;22.00;99.90
4934;DHT22;2482;49.154;8.254;2022-10-16T14:47:17;22.00;99.90
4934;DHT22;2482;49.154;8.254;2022-10-16T14:49:58;22.00;99.90
4934;DHT22;2482;49.154;8.254;2022-10-16T14:52:31;21.90;99.90
4934;DHT22;2482;49.154;8.254;2022-10-16T14:55:03;21.90;99.90
4934;DHT22;2482;49.154;8.254;2022-10-16T14:57:33;21.80;99.90
4934;DHT22;2482;49.154;8.254;2022-10-16T15:00:23;21.70;99.90
4934;DHT22;2482;49.154;8.254;2022-10-16T15:02:53;21.80;99.90
4934;DHT22;2482;49.154;8.254;2022-10-16T15:05:26;21.70;99.90
4934;DHT22;2482;49.154;8.254;2022-10-16T15:07:55;21.70;99.90
4934;DHT22;2482;49.154;8.254;2022-10-16T15:10:23;21.50;99.90
4934;DHT22;2482;49.154;8.254;2022-10-16T15:12:52;21.30;99.90
4934;DHT22;2482;49.154;8.254;2022-10-16T15:17:51;21.20;99.90
4934;DHT22;2482;49.154;8.254;2022-10-16T15:20:24;21.20;99.90
4934;DHT22;2482;49.154;8.254;2022-10-16T15:22:52;21.20;99.90
4934;DHT22;2482;49.154;8.254;2022-10-16T15:25:42;21.10;99.90
4934;DHT22;2482;49.154;8.254;2022-10-16T15:28:20;21.20;99.90
4934;DHT22;2482;49.154;8.254;2022-10-16T15:30:50;21.00;99.90
4934;DHT22;2482;49.154;8.254;2022-10-16T15:33:26;21.00;99.90
4934;DHT22;2482;49.154;8.254;2022-10-16T15:35:55;20.90;99.90
4934;DHT22;2482;49.154;8.254;2022-10-16T15:38:24;20.80;99.90
4934;DHT22;2482;49.154;8.254;2022-10-16T15:41:03;20.80;99.90
4934;DHT22;2482;49.154;8.254;2022-10-16T15:43:30;20.80;99.90
4934;DHT22;2482;49.154;8.254;2022-10-16T15:46:05;20.90;99.90
4934;DHT22;2482;49.154;8.254;2022-10-16T15:48:35;20.90;99.90
4934;DHT22;2482;49.154;8.254;2022-10-16T15:51:05;20.90;99.90
4934;DHT22;2482;49.154;8.254;2022-10-16T15:53:52;20.80;99.90
4934;DHT22;2482;49.154;8.254;2022-10-16T15:56:21;20.80;99.90
4934;DHT22;2482;49.154;8.254;2022-10-16T15:58:55;20.80;99.90
4934;DHT22;2482;49.154;8.254;2022-10-16T16:01:23;20.70;99.90
4934;DHT22;2482;49.154;8.254;2022-10-16T16:03:54;20.60;99.90
4934;DHT22;2482;49.154;8.254;2022-10-16T16:06:22;20.50;99.90
4934;DHT22;2482;49.154;8.254;2022-10-16T16:08:51;20.40;99.90
4934;DHT22;2482;49.154;8.254;2022-10-16T16:11:19;20.30;99.90
4934;DHT22;2482;49.154;8.254;2022-10-16T16:13:53;20.10;99.90
4934;DHT22;2482;49.154;8.254;2022-10-16T16:16:21;20.00;99.90
4934;DHT22;2482;49.154;8.254;2022-10-16T16:18:54;19.90;99.90
4934;DHT22;2482;49.154;8.254;2022-10-16T16:21:24;19.70;99.90
4934;DHT22;2482;49.154;8.254;2022-10-16T16:23:53;19.60;99.90
4934;DHT22;2482;49.154;8.254;2022-10-16T16:26:25;19.40;99.90
4934;DHT22;2482;49.154;8.254;2022-10-16T16:29:12;19.30;99.90
4934;DHT22;2482;49.154;8.254;2022-10-16T16:31:41;19.20;99.90
4934;DHT22;2482;49.154;8.254;2022-10-16T16:34:10;19.20;99.90
4934;DHT22;2482;49.154;8.254;2022-10-16T16:36:38;19.10;99.90
4934;DHT22;2482;49.154;8.254;2022-10-16T16:39:07;18.90;99.90
4934;DHT22;2482;49.154;8.254;2022-10-16T16:41:34;18.70;99.90
4934;DHT22;2482;49.154;8.254;2022-10-16T16:44:04;18.60;99.90
4934;DHT22;2482;49.154;8.254;2022-10-16T16:46:33;18.50;99.90
4934;DHT22;2482;49.154;8.254;2022-10-16T16:49:01;18.30;99.90
4934;DHT22;2482;49.154;8.254;2022-10-16T16:51:29;18.30;99.90
4934;DHT22;2482;49.154;8.254;2022-10-16T16:53:56;18.30;99.90
4934;DHT22;2482;49.154;8.254;2022-10-16T16:56:24;18.20;99.90
4934;DHT22;2482;49.154;8.254;2022-10-16T16:58:54;18.00;99.90
4934;DHT22;2482;49.154;8.254;2022-10-16T17:01:24;17.90;99.90
4934;DHT22;2482;49.154;8.254;2022-10-16T17:03:55;17.80;99.90
4934;DHT22;2482;49.154;8.254;2022-10-16T17:06:28;17.80;99.90
4934;DHT22;2482;49.154;8.254;2022-10-16T17:08:56;17.70;99.90
4934;DHT22;2482;49.154;8.254;2022-10-16T17:11:25;17.70;99.90
4934;DHT22;2482;49.154;8.254;2022-10-16T17:13:54;17.70;99.90
4934;DHT22;2482;49.154;8.254;2022-10-16T17:16:29;17.50;99.90
4934;DHT22;2482;49.154;8.254;2022-10-16T17:19:07;17.40;99.90
4934;DHT22;2482;49.154;8.254;2022-10-16T17:21:37;17.30;99.90
4934;DHT22;2482;49.154;8.254;2022-10-16T17:24:04;17.30;99.90
4934;DHT22;2482;49.154;8.254;2022-10-16T17:26:32;17.20;99.90
4934;DHT22;2482;49.154;8.254;2022-10-16T17:29:04;17.10;99.90
4934;DHT22;2482;49.154;8.254;2022-10-16T17:31:33;16.90;99.90
4934;DHT22;2482;49.154;8.254;2022-10-16T17:34:04;17.00;99.90
4934;DHT22;2482;49.154;8.254;2022-10-16T17:36:34;17.10;99.90
4934;DHT22;2482;49.154;8.254;2022-10-16T17:39:07;17.00;99.90
4934;DHT22;2482;49.154;8.254;2022-10-16T17:41:37;17.00;99.90
4934;DHT22;2482;49.154;8.254;2022-10-16T17:44:06;16.80;99.90
4934;DHT22;2482;49.154;8.254;2022-10-16T17:46:34;16.80;99.90
4934;DHT22;2482;49.154;8.254;2022-10-16T17:49:08;16.90;99.90
4934;DHT22;2482;49.154;8.254;2022-10-16T17:51:35;16.90;99.90
4934;DHT22;2482;49.154;8.254;2022-10-16T17:54:02;16.90;99.90
4934;DHT22;2482;49.154;8.254;2022-10-16T17:56:30;16.90;99.90
4934;DHT22;2482;49.154;8.254;2022-10-16T17:58:58;16.80;99.90
4934;DHT22;2482;49.154;8.254;2022-10-16T18:01:35;16.80;99.90
4934;DHT22;2482;49.154;8.254;2022-10-16T18:04:14;16.80;99.90
4934;DHT22;2482;49.154;8.254;2022-10-16T18:06:43;16.70;99.90
4934;DHT22;2482;49.154;8.254;2022-10-16T18:09:13;16.50;99.90
4934;DHT22;2482;49.154;8.254;2022-10-16T18:11:43;16.50;99.90
4934;DHT22;2482;49.154;8.254;2022-10-16T18:14:13;16.50;99.90
4934;DHT22;2482;49.154;8.254;2022-10-16T18:16:41;16.40;99.90
4934;DHT22;2482;49.154;8.254;2022-10-16T18:19:10;16.50;99.90
4934;DHT22;2482;49.154;8.254;2022-10-16T18:21:38;16.50;99.90
4934;DHT22;2482;49.154;8.254;2022-10-16T18:24:06;16.50;99.90
4934;DHT22;2482;49.154;8.254;2022-10-16T18:26:33;16.50;99.90
4934;DHT22;2482;49.154;8.254;2022-10-16T18:29:00;16.50;99.90
4934;DHT22;2482;49.154;8.254;2022-10-16T18:31:28;16.50;99.90
4934;DHT22;2482;49.154;8.254;2022-10-16T18:33:55;16.50;99.90
4934;DHT22;2482;49.154;8.254;2022-10-16T18:36:28;16.50;99.90